sensor_id;sensor_type;location;lat;lon;timestamp;P1;durP1;ratioP1;P2;durP2;ratioP2
46757;SDS011;32509;47.750;-3.396;2023-02-23T00:01:20;10.52;;;4.00;;
46757;SDS011;32509;47.750;-3.396;2023-02-23T00:03:47;11.45;;;5.30;;
46757;SDS011;32509;47.750;-3.396;2023-02-23T00:06:18;10.88;;;5.43;;
46757;SDS011;32509;47.750;-3.396;2023-02-23T00:08:44;6.28;;;4.35;;
46757;SDS011;32509;47.750;-3.396;2023-02-23T00:11:12;5.68;;;3.17;;
46757;SDS011;32509;47.750;-3.396;2023-02-23T00:13:39;8.73;;;4.10;;
46757;SDS011;32509;47.750;-3.396;2023-02-23T00:16:10;9.73;;;4.45;;
46757;SDS011;32509;47.750;-3.396;2023-02-23T00:18:44;11.60;;;4.88;;
46757;SDS011;32509;47.750;-3.396;2023-02-23T00:21:20;19.70;;;8.60;;
46757;SDS011;32509;47.750;-3.396;2023-02-23T00:23:46;12.18;;;5.50;;
46757;SDS011;32509;47.750;-3.396;2023-02-23T00:26:14;7.13;;;3.58;;
46757;SDS011;32509;47.750;-3.396;2023-02-23T00:28:43;14.48;;;6.28;;
46757;SDS011;32509;47.750;-3.396;2023-02-23T00:31:09;8.13;;;4.43;;
46757;SDS011;32509;47.750;-3.396;2023-02-23T00:33:35;12.52;;;5.43;;
46757;SDS011;32509;47.750;-3.396;2023-02-23T00:36:08;13.05;;;4.72;;
46757;SDS011;32509;47.750;-3.396;2023-02-23T00:38:37;8.05;;;3.75;;
46757;SDS011;32509;47.750;-3.396;2023-02-23T00:41:11;11.35;;;4.18;;
46757;SDS011;32509;47.750;-3.396;2023-02-23T00:43:42;7.70;;;3.92;;
46757;SDS011;32509;47.750;-3.396;2023-02-23T00:46:15;5.03;;;3.22;;
46757;SDS011;32509;47.750;-3.396;2023-02-23T00:48:43;6.53;;;3.38;;
46757;SDS011;32509;47.750;-3.396;2023-02-23T00:51:10;6.30;;;3.20;;
46757;SDS011;32509;47.750;-3.396;2023-02-23T00:53:36;9.30;;;3.00;;
46757;SDS011;32509;47.750;-3.396;2023-02-23T00:56:03;9.80;;;3.42;;
46757;SDS011;32509;47.750;-3.396;2023-02-23T00:58:29;6.57;;;3.78;;
46757;SDS011;32509;47.750;-3.396;2023-02-23T01:00:56;6.20;;;3.65;;
46757;SDS011;32509;47.750;-3.396;2023-02-23T01:03:23;8.10;;;3.38;;
46757;SDS011;32509;47.750;-3.396;2023-02-23T01:05:53;8.43;;;4.35;;
46757;SDS011;32509;47.750;-3.396;2023-02-23T01:08:24;7.32;;;3.83;;
46757;SDS011;32509;47.750;-3.396;2023-02-23T01:10:51;4.55;;;3.47;;
46757;SDS011;32509;47.750;-3.396;2023-02-23T01:13:20;4.47;;;3.08;;
46757;SDS011;32509;47.750;-3.396;2023-02-23T01:15:48;11.32;;;3.97;;
46757;SDS011;32509;47.750;-3.396;2023-02-23T01:18:15;7.10;;;3.58;;
46757;SDS011;32509;47.750;-3.396;2023-02-23T01:20:42;8.18;;;3.55;;
46757;SDS011;32509;47.750;-3.396;2023-02-23T01:23:10;8.38;;;3.65;;
46757;SDS011;32509;47.750;-3.396;2023-02-23T01:25:37;7.68;;;4.03;;
46757;SDS011;32509;47.750;-3.396;2023-02-23T01:28:03;8.88;;;3.70;;
46757;SDS011;32509;47.750;-3.396;2023-02-23T01:30:29;8.32;;;3.97;;
46757;SDS011;32509;47.750;-3.396;2023-02-23T01:33:01;6.25;;;3.78;;
46757;SDS011;32509;47.750;-3.396;2023-02-23T01:35:27;12.52;;;5.00;;
46757;SDS011;32509;47.750;-3.396;2023-02-23T01:37:54;6.85;;;4.10;;
46757;SDS011;32509;47.750;-3.396;2023-02-23T01:40:21;6.85;;;3.70;;
46757;SDS011;32509;47.750;-3.396;2023-02-23T01:43:26;13.18;;;5.22;;
46757;SDS011;32509;47.750;-3.396;2023-02-23T01:45:50;10.90;;;5.38;;
46757;SDS011;32509;47.750;-3.396;2023-02-23T01:48:25;8.15;;;5.10;;
46757;SDS011;32509;47.750;-3.396;2023-02-23T01:51:05;13.88;;;5.00;;
46757;SDS011;32509;47.750;-3.396;2023-02-23T01:53:36;9.48;;;3.80;;
46757;SDS011;32509;47.750;-3.396;2023-02-23T01:56:13;7.75;;;4.00;;
46757;SDS011;32509;47.750;-3.396;2023-02-23T01:58:44;7.20;;;4.72;;
46757;SDS011;32509;47.750;-3.396;2023-02-23T02:01:11;9.93;;;5.13;;
46757;SDS011;32509;47.750;-3.396;2023-02-23T02:03:42;10.98;;;4.10;;
46757;SDS011;32509;47.750;-3.396;2023-02-23T02:06:12;7.50;;;3.78;;
46757;SDS011;32509;47.750;-3.396;2023-02-23T02:08:42;12.45;;;4.47;;
46757;SDS011;32509;47.750;-3.396;2023-02-23T02:11:15;7.78;;;3.60;;
46757;SDS011;32509;47.750;-3.396;2023-02-23T02:14:23;11.27;;;4.13;;
46757;SDS011;32509;47.750;-3.396;2023-02-23T02:40:06;8.68;;;4.20;;
46757;SDS011;32509;47.750;-3.396;2023-02-23T02:45:49;10.75;;;4.38;;
46757;SDS011;32509;47.750;-3.396;2023-02-23T02:51:07;9.40;;;4.20;;
46757;SDS011;32509;47.750;-3.396;2023-02-23T02:56:31;6.95;;;4.28;;
46757;SDS011;32509;47.750;-3.396;2023-02-23T02:59:06;6.20;;;3.45;;
46757;SDS011;32509;47.750;-3.396;2023-02-23T03:01:56;6.90;;;3.28;;
46757;SDS011;32509;47.750;-3.396;2023-02-23T03:04:40;6.55;;;3.08;;
46757;SDS011;32509;47.750;-3.396;2023-02-23T03:16:36;7.57;;;2.90;;
46757;SDS011;32509;47.750;-3.396;2023-02-23T03:19:28;3.55;;;2.90;;
46757;SDS011;32509;47.750;-3.396;2023-02-23T03:22:19;5.05;;;2.65;;
46757;SDS011;32509;47.750;-3.396;2023-02-23T03:25:09;4.60;;;2.72;;
46757;SDS011;32509;47.750;-3.396;2023-02-23T03:28:15;6.88;;;3.30;;
46757;SDS011;32509;47.750;-3.396;2023-02-23T03:37:02;4.45;;;2.92;;
46757;SDS011;32509;47.750;-3.396;2023-02-23T03:39:53;8.27;;;3.50;;
46757;SDS011;32509;47.750;-3.396;2023-02-23T03:42:48;8.70;;;3.17;;
46757;SDS011;32509;47.750;-3.396;2023-02-23T03:45:36;9.27;;;3.28;;
46757;SDS011;32509;47.750;-3.396;2023-02-23T03:48:21;4.15;;;3.10;;
46757;SDS011;32509;47.750;-3.396;2023-02-23T03:51:08;6.45;;;2.90;;
46757;SDS011;32509;47.750;-3.396;2023-02-23T03:56:46;5.95;;;2.83;;
46757;SDS011;32509;47.750;-3.396;2023-02-23T03:59:38;6.55;;;3.15;;
46757;SDS011;32509;47.750;-3.396;2023-02-23T04:02:26;6.15;;;3.00;;
46757;SDS011;32509;47.750;-3.396;2023-02-23T04:05:17;4.70;;;4.05;;
46757;SDS011;32509;47.750;-3.396;2023-02-23T04:08:03;3.67;;;2.72;;
46757;SDS011;32509;47.750;-3.396;2023-02-23T04:10:59;4.50;;;2.60;;
46757;SDS011;32509;47.750;-3.396;2023-02-23T04:14:09;6.10;;;2.92;;
46757;SDS011;32509;47.750;-3.396;2023-02-23T04:16:48;5.43;;;3.70;;
46757;SDS011;32509;47.750;-3.396;2023-02-23T04:19:15;7.40;;;2.67;;
46757;SDS011;32509;47.750;-3.396;2023-02-23T04:21:40;3.72;;;2.50;;
46757;SDS011;32509;47.750;-3.396;2023-02-23T04:24:07;3.78;;;2.58;;
46757;SDS011;32509;47.750;-3.396;2023-02-23T04:26:34;9.00;;;2.58;;
46757;SDS011;32509;47.750;-3.396;2023-02-23T04:29:00;4.22;;;2.08;;
46757;SDS011;32509;47.750;-3.396;2023-02-23T04:31:26;3.67;;;2.78;;
46757;SDS011;32509;47.750;-3.396;2023-02-23T04:33:51;6.10;;;2.88;;
46757;SDS011;32509;47.750;-3.396;2023-02-23T04:36:17;7.28;;;3.47;;
46757;SDS011;32509;47.750;-3.396;2023-02-23T04:38:43;4.80;;;2.22;;
46757;SDS011;32509;47.750;-3.396;2023-02-23T04:41:09;5.75;;;2.55;;
46757;SDS011;32509;47.750;-3.396;2023-02-23T04:43:38;5.60;;;2.45;;
46757;SDS011;32509;47.750;-3.396;2023-02-23T04:46:03;4.38;;;2.28;;
46757;SDS011;32509;47.750;-3.396;2023-02-23T04:48:29;4.90;;;2.20;;
46757;SDS011;32509;47.750;-3.396;2023-02-23T04:50:58;5.53;;;2.20;;
46757;SDS011;32509;47.750;-3.396;2023-02-23T04:53:24;5.82;;;2.25;;
46757;SDS011;32509;47.750;-3.396;2023-02-23T04:55:51;2.75;;;2.10;;
46757;SDS011;32509;47.750;-3.396;2023-02-23T04:58:17;8.15;;;2.67;;
46757;SDS011;32509;47.750;-3.396;2023-02-23T05:00:43;11.18;;;2.22;;
46757;SDS011;32509;47.750;-3.396;2023-02-23T05:03:08;4.78;;;2.15;;
46757;SDS011;32509;47.750;-3.396;2023-02-23T05:05:34;4.90;;;2.03;;
46757;SDS011;32509;47.750;-3.396;2023-02-23T05:08:00;4.35;;;1.88;;
46757;SDS011;32509;47.750;-3.396;2023-02-23T05:10:26;6.60;;;2.10;;
46757;SDS011;32509;47.750;-3.396;2023-02-23T05:12:53;4.22;;;2.65;;
46757;SDS011;32509;47.750;-3.396;2023-02-23T05:15:19;4.03;;;2.20;;
46757;SDS011;32509;47.750;-3.396;2023-02-23T05:17:45;4.07;;;2.70;;
46757;SDS011;32509;47.750;-3.396;2023-02-23T05:20:12;5.70;;;3.13;;
46757;SDS011;32509;47.750;-3.396;2023-02-23T05:22:39;3.95;;;2.95;;
46757;SDS011;32509;47.750;-3.396;2023-02-23T05:25:05;6.22;;;3.95;;
46757;SDS011;32509;47.750;-3.396;2023-02-23T05:27:34;8.10;;;3.10;;
46757;SDS011;32509;47.750;-3.396;2023-02-23T05:30:01;4.78;;;2.55;;
46757;SDS011;32509;47.750;-3.396;2023-02-23T05:32:27;3.78;;;2.60;;
46757;SDS011;32509;47.750;-3.396;2023-02-23T05:34:53;5.28;;;2.55;;
46757;SDS011;32509;47.750;-3.396;2023-02-23T05:37:19;3.72;;;2.10;;
46757;SDS011;32509;47.750;-3.396;2023-02-23T05:39:45;5.03;;;2.00;;
46757;SDS011;32509;47.750;-3.396;2023-02-23T05:42:11;6.00;;;2.30;;
46757;SDS011;32509;47.750;-3.396;2023-02-23T05:44:37;5.80;;;2.40;;
46757;SDS011;32509;47.750;-3.396;2023-02-23T05:47:03;4.85;;;1.90;;
46757;SDS011;32509;47.750;-3.396;2023-02-23T05:49:28;12.23;;;2.47;;
46757;SDS011;32509;47.750;-3.396;2023-02-23T05:51:54;6.85;;;2.00;;
46757;SDS011;32509;47.750;-3.396;2023-02-23T05:54:20;5.28;;;1.90;;
46757;SDS011;32509;47.750;-3.396;2023-02-23T05:56:46;6.22;;;2.83;;
46757;SDS011;32509;47.750;-3.396;2023-02-23T05:59:12;5.10;;;2.10;;
46757;SDS011;32509;47.750;-3.396;2023-02-23T06:01:38;4.78;;;2.25;;
46757;SDS011;32509;47.750;-3.396;2023-02-23T06:04:04;6.22;;;2.25;;
46757;SDS011;32509;47.750;-3.396;2023-02-23T06:06:30;4.82;;;2.03;;
46757;SDS011;32509;47.750;-3.396;2023-02-23T06:08:56;4.40;;;2.42;;
46757;SDS011;32509;47.750;-3.396;2023-02-23T06:11:21;4.65;;;2.10;;
46757;SDS011;32509;47.750;-3.396;2023-02-23T06:13:47;3.00;;;2.13;;
46757;SDS011;32509;47.750;-3.396;2023-02-23T06:16:13;7.20;;;2.60;;
46757;SDS011;32509;47.750;-3.396;2023-02-23T06:18:40;5.85;;;2.38;;
46757;SDS011;32509;47.750;-3.396;2023-02-23T06:21:05;8.93;;;2.22;;
46757;SDS011;32509;47.750;-3.396;2023-02-23T06:23:34;8.98;;;3.05;;
46757;SDS011;32509;47.750;-3.396;2023-02-23T06:25:59;4.00;;;2.10;;
46757;SDS011;32509;47.750;-3.396;2023-02-23T06:28:26;4.68;;;2.10;;
46757;SDS011;32509;47.750;-3.396;2023-02-23T06:30:52;4.35;;;2.53;;
46757;SDS011;32509;47.750;-3.396;2023-02-23T06:33:19;4.28;;;1.83;;
46757;SDS011;32509;47.750;-3.396;2023-02-23T06:35:46;4.40;;;2.05;;
46757;SDS011;32509;47.750;-3.396;2023-02-23T06:38:11;4.57;;;2.50;;
46757;SDS011;32509;47.750;-3.396;2023-02-23T06:40:38;3.78;;;2.20;;
46757;SDS011;32509;47.750;-3.396;2023-02-23T06:43:04;5.43;;;1.80;;
46757;SDS011;32509;47.750;-3.396;2023-02-23T06:45:30;7.53;;;2.20;;
46757;SDS011;32509;47.750;-3.396;2023-02-23T06:47:57;2.45;;;2.25;;
46757;SDS011;32509;47.750;-3.396;2023-02-23T06:50:23;4.95;;;2.38;;
46757;SDS011;32509;47.750;-3.396;2023-02-23T06:52:49;3.20;;;1.90;;
46757;SDS011;32509;47.750;-3.396;2023-02-23T06:55:15;7.72;;;2.08;;
46757;SDS011;32509;47.750;-3.396;2023-02-23T06:57:41;7.97;;;2.55;;
46757;SDS011;32509;47.750;-3.396;2023-02-23T07:00:08;5.90;;;2.40;;
46757;SDS011;32509;47.750;-3.396;2023-02-23T07:02:36;3.85;;;2.00;;
46757;SDS011;32509;47.750;-3.396;2023-02-23T07:05:02;10.75;;;3.42;;
46757;SDS011;32509;47.750;-3.396;2023-02-23T07:07:28;3.03;;;1.77;;
46757;SDS011;32509;47.750;-3.396;2023-02-23T07:09:54;4.50;;;1.98;;
46757;SDS011;32509;47.750;-3.396;2023-02-23T07:12:23;8.60;;;2.60;;
46757;SDS011;32509;47.750;-3.396;2023-02-23T07:14:49;2.95;;;2.08;;
46757;SDS011;32509;47.750;-3.396;2023-02-23T07:17:15;3.92;;;2.10;;
46757;SDS011;32509;47.750;-3.396;2023-02-23T07:19:41;4.38;;;2.92;;
46757;SDS011;32509;47.750;-3.396;2023-02-23T07:22:07;4.25;;;2.20;;
46757;SDS011;32509;47.750;-3.396;2023-02-23T07:24:33;5.55;;;2.25;;
46757;SDS011;32509;47.750;-3.396;2023-02-23T07:26:59;4.95;;;1.92;;
46757;SDS011;32509;47.750;-3.396;2023-02-23T07:29:25;3.55;;;2.25;;
46757;SDS011;32509;47.750;-3.396;2023-02-23T07:31:52;2.78;;;2.22;;
46757;SDS011;32509;47.750;-3.396;2023-02-23T07:34:18;4.63;;;2.67;;
46757;SDS011;32509;47.750;-3.396;2023-02-23T07:36:44;2.38;;;1.77;;
46757;SDS011;32509;47.750;-3.396;2023-02-23T07:39:10;3.90;;;1.85;;
46757;SDS011;32509;47.750;-3.396;2023-02-23T07:41:36;8.80;;;2.65;;
46757;SDS011;32509;47.750;-3.396;2023-02-23T07:44:02;4.32;;;2.97;;
46757;SDS011;32509;47.750;-3.396;2023-02-23T07:46:29;5.97;;;2.42;;
46757;SDS011;32509;47.750;-3.396;2023-02-23T07:48:55;5.70;;;2.72;;
46757;SDS011;32509;47.750;-3.396;2023-02-23T07:51:20;5.03;;;1.98;;
46757;SDS011;32509;47.750;-3.396;2023-02-23T07:53:46;3.28;;;2.65;;
46757;SDS011;32509;47.750;-3.396;2023-02-23T07:56:13;9.55;;;2.60;;
46757;SDS011;32509;47.750;-3.396;2023-02-23T07:58:40;10.65;;;3.47;;
46757;SDS011;32509;47.750;-3.396;2023-02-23T08:01:08;3.40;;;2.63;;
46757;SDS011;32509;47.750;-3.396;2023-02-23T08:03:35;7.28;;;2.78;;
46757;SDS011;32509;47.750;-3.396;2023-02-23T08:06:00;8.88;;;4.65;;
46757;SDS011;32509;47.750;-3.396;2023-02-23T08:08:26;5.40;;;2.63;;
46757;SDS011;32509;47.750;-3.396;2023-02-23T08:10:59;4.68;;;2.88;;
46757;SDS011;32509;47.750;-3.396;2023-02-23T08:13:28;5.50;;;2.88;;
46757;SDS011;32509;47.750;-3.396;2023-02-23T08:15:56;6.75;;;2.17;;
46757;SDS011;32509;47.750;-3.396;2023-02-23T08:18:23;3.50;;;2.30;;
46757;SDS011;32509;47.750;-3.396;2023-02-23T08:20:49;6.47;;;2.72;;
46757;SDS011;32509;47.750;-3.396;2023-02-23T08:23:15;4.82;;;2.63;;
46757;SDS011;32509;47.750;-3.396;2023-02-23T08:25:43;7.50;;;2.45;;
46757;SDS011;32509;47.750;-3.396;2023-02-23T08:28:09;6.30;;;2.70;;
46757;SDS011;32509;47.750;-3.396;2023-02-23T08:30:36;6.18;;;2.92;;
46757;SDS011;32509;47.750;-3.396;2023-02-23T08:33:02;6.05;;;3.53;;
46757;SDS011;32509;47.750;-3.396;2023-02-23T08:35:29;10.35;;;4.40;;
46757;SDS011;32509;47.750;-3.396;2023-02-23T08:37:57;8.32;;;4.53;;
46757;SDS011;32509;47.750;-3.396;2023-02-23T08:40:23;6.05;;;4.85;;
46757;SDS011;32509;47.750;-3.396;2023-02-23T08:42:49;7.40;;;4.00;;
46757;SDS011;32509;47.750;-3.396;2023-02-23T08:45:18;5.20;;;4.05;;
46757;SDS011;32509;47.750;-3.396;2023-02-23T08:47:44;6.78;;;2.95;;
46757;SDS011;32509;47.750;-3.396;2023-02-23T08:50:10;5.25;;;3.00;;
46757;SDS011;32509;47.750;-3.396;2023-02-23T08:52:38;7.10;;;3.65;;
46757;SDS011;32509;47.750;-3.396;2023-02-23T08:55:04;9.57;;;4.45;;
46757;SDS011;32509;47.750;-3.396;2023-02-23T08:57:32;6.50;;;2.70;;
46757;SDS011;32509;47.750;-3.396;2023-02-23T08:59:58;5.72;;;2.80;;
46757;SDS011;32509;47.750;-3.396;2023-02-23T09:02:24;5.28;;;4.05;;
46757;SDS011;32509;47.750;-3.396;2023-02-23T09:04:51;6.35;;;2.53;;
46757;SDS011;32509;47.750;-3.396;2023-02-23T09:07:18;4.18;;;2.78;;
46757;SDS011;32509;47.750;-3.396;2023-02-23T09:09:52;3.38;;;2.70;;
46757;SDS011;32509;47.750;-3.396;2023-02-23T09:12:21;5.25;;;2.60;;
46757;SDS011;32509;47.750;-3.396;2023-02-23T09:14:47;3.42;;;2.70;;
46757;SDS011;32509;47.750;-3.396;2023-02-23T09:17:15;4.10;;;3.28;;
46757;SDS011;32509;47.750;-3.396;2023-02-23T09:19:41;8.32;;;3.15;;
46757;SDS011;32509;47.750;-3.396;2023-02-23T09:22:07;6.57;;;3.35;;
46757;SDS011;32509;47.750;-3.396;2023-02-23T09:24:33;6.25;;;3.05;;
46757;SDS011;32509;47.750;-3.396;2023-02-23T09:26:59;6.05;;;2.88;;
46757;SDS011;32509;47.750;-3.396;2023-02-23T09:29:25;6.32;;;2.67;;
46757;SDS011;32509;47.750;-3.396;2023-02-23T09:31:51;4.28;;;2.42;;
46757;SDS011;32509;47.750;-3.396;2023-02-23T09:34:17;6.32;;;2.40;;
46757;SDS011;32509;47.750;-3.396;2023-02-23T09:36:43;6.10;;;2.13;;
46757;SDS011;32509;47.750;-3.396;2023-02-23T09:39:09;3.50;;;1.98;;
46757;SDS011;32509;47.750;-3.396;2023-02-23T09:49:49;5.32;;;2.58;;
46757;SDS011;32509;47.750;-3.396;2023-02-23T09:52:18;5.75;;;2.53;;
46757;SDS011;32509;47.750;-3.396;2023-02-23T09:54:56;6.18;;;3.05;;
46757;SDS011;32509;47.750;-3.396;2023-02-23T09:57:24;3.80;;;2.28;;
46757;SDS011;32509;47.750;-3.396;2023-02-23T10:00:05;5.38;;;3.00;;
46757;SDS011;32509;47.750;-3.396;2023-02-23T10:06:00;4.22;;;2.53;;
46757;SDS011;32509;47.750;-3.396;2023-02-23T10:08:45;4.93;;;2.67;;
46757;SDS011;32509;47.750;-3.396;2023-02-23T10:19:45;7.63;;;2.20;;
46757;SDS011;32509;47.750;-3.396;2023-02-23T10:22:20;4.75;;;2.20;;
46757;SDS011;32509;47.750;-3.396;2023-02-23T10:24:59;8.10;;;2.67;;
46757;SDS011;32509;47.750;-3.396;2023-02-23T10:27:35;3.45;;;1.85;;
46757;SDS011;32509;47.750;-3.396;2023-02-23T10:30:16;5.00;;;2.22;;
46757;SDS011;32509;47.750;-3.396;2023-02-23T10:35:16;4.90;;;2.38;;
46757;SDS011;32509;47.750;-3.396;2023-02-23T10:37:47;2.40;;;2.17;;
46757;SDS011;32509;47.750;-3.396;2023-02-23T10:40:18;4.63;;;2.17;;
46757;SDS011;32509;47.750;-3.396;2023-02-23T10:42:46;3.90;;;2.30;;
46757;SDS011;32509;47.750;-3.396;2023-02-23T10:45:17;4.68;;;2.67;;
46757;SDS011;32509;47.750;-3.396;2023-02-23T10:47:57;4.05;;;2.28;;
46757;SDS011;32509;47.750;-3.396;2023-02-23T10:50:30;4.53;;;2.83;;
46757;SDS011;32509;47.750;-3.396;2023-02-23T10:55:35;4.35;;;2.38;;
46757;SDS011;32509;47.750;-3.396;2023-02-23T10:58:08;4.38;;;2.20;;
46757;SDS011;32509;47.750;-3.396;2023-02-23T11:00:52;4.00;;;2.20;;
46757;SDS011;32509;47.750;-3.396;2023-02-23T11:05:56;5.97;;;2.30;;
46757;SDS011;32509;47.750;-3.396;2023-02-23T11:08:23;4.40;;;1.70;;
46757;SDS011;32509;47.750;-3.396;2023-02-23T11:11:00;3.85;;;2.63;;
46757;SDS011;32509;47.750;-3.396;2023-02-23T11:13:27;5.88;;;1.70;;
46757;SDS011;32509;47.750;-3.396;2023-02-23T11:16:03;4.40;;;2.05;;
46757;SDS011;32509;47.750;-3.396;2023-02-23T11:18:34;3.72;;;1.90;;
46757;SDS011;32509;47.750;-3.396;2023-02-23T11:21:00;3.90;;;1.67;;
46757;SDS011;32509;47.750;-3.396;2023-02-23T11:23:30;3.70;;;2.00;;
46757;SDS011;32509;47.750;-3.396;2023-02-23T11:26:00;7.65;;;1.83;;
46757;SDS011;32509;47.750;-3.396;2023-02-23T11:28:29;2.10;;;1.85;;
46757;SDS011;32509;47.750;-3.396;2023-02-23T11:31:08;2.97;;;1.73;;
46757;SDS011;32509;47.750;-3.396;2023-02-23T11:33:40;3.83;;;1.67;;
46757;SDS011;32509;47.750;-3.396;2023-02-23T11:36:17;3.55;;;1.60;;
46757;SDS011;32509;47.750;-3.396;2023-02-23T11:38:48;8.63;;;1.95;;
46757;SDS011;32509;47.750;-3.396;2023-02-23T11:41:26;5.10;;;1.60;;
46757;SDS011;32509;47.750;-3.396;2023-02-23T11:43:55;6.65;;;1.58;;
46757;SDS011;32509;47.750;-3.396;2023-02-23T11:46:23;3.55;;;0.98;;
46757;SDS011;32509;47.750;-3.396;2023-02-23T11:48:53;3.88;;;1.20;;
46757;SDS011;32509;47.750;-3.396;2023-02-23T11:51:32;4.93;;;1.15;;
46757;SDS011;32509;47.750;-3.396;2023-02-23T11:54:01;3.55;;;1.00;;
46757;SDS011;32509;47.750;-3.396;2023-02-23T11:56:29;3.42;;;0.95;;
46757;SDS011;32509;47.750;-3.396;2023-02-23T11:59:05;2.60;;;1.20;;
46757;SDS011;32509;47.750;-3.396;2023-02-23T12:01:40;3.53;;;1.45;;
46757;SDS011;32509;47.750;-3.396;2023-02-23T12:06:50;3.55;;;0.88;;
46757;SDS011;32509;47.750;-3.396;2023-02-23T12:09:26;3.50;;;1.17;;
46757;SDS011;32509;47.750;-3.396;2023-02-23T12:11:57;3.65;;;1.00;;
46757;SDS011;32509;47.750;-3.396;2023-02-23T12:14:38;1.70;;;1.20;;
46757;SDS011;32509;47.750;-3.396;2023-02-23T12:17:22;3.25;;;1.23;;
46757;SDS011;32509;47.750;-3.396;2023-02-23T12:19:56;1.50;;;0.90;;
46757;SDS011;32509;47.750;-3.396;2023-02-23T12:22:37;1.98;;;0.80;;
46757;SDS011;32509;47.750;-3.396;2023-02-23T12:25:29;1.23;;;0.80;;
46757;SDS011;32509;47.750;-3.396;2023-02-23T12:33:17;3.13;;;0.85;;
46757;SDS011;32509;47.750;-3.396;2023-02-23T12:35:53;1.95;;;0.65;;
46757;SDS011;32509;47.750;-3.396;2023-02-23T12:41:34;2.45;;;0.90;;
46757;SDS011;32509;47.750;-3.396;2023-02-23T12:46:54;3.65;;;1.00;;
46757;SDS011;32509;47.750;-3.396;2023-02-23T12:49:38;1.45;;;0.75;;
46757;SDS011;32509;47.750;-3.396;2023-02-23T12:52:16;1.65;;;0.88;;
46757;SDS011;32509;47.750;-3.396;2023-02-23T12:54:46;2.42;;;0.88;;
46757;SDS011;32509;47.750;-3.396;2023-02-23T13:02:37;1.92;;;0.80;;
46757;SDS011;32509;47.750;-3.396;2023-02-23T13:08:24;2.17;;;1.20;;
46757;SDS011;32509;47.750;-3.396;2023-02-23T13:10:49;2.72;;;1.10;;
46757;SDS011;32509;47.750;-3.396;2023-02-23T13:16:34;1.17;;;0.90;;
46757;SDS011;32509;47.750;-3.396;2023-02-23T13:24:46;4.18;;;1.77;;
46757;SDS011;32509;47.750;-3.396;2023-02-23T13:27:17;2.83;;;1.15;;
46757;SDS011;32509;47.750;-3.396;2023-02-23T13:30:00;2.38;;;1.38;;
46757;SDS011;32509;47.750;-3.396;2023-02-23T13:32:28;3.00;;;1.00;;
46757;SDS011;32509;47.750;-3.396;2023-02-23T13:35:03;1.40;;;0.85;;
46757;SDS011;32509;47.750;-3.396;2023-02-23T13:42:58;2.58;;;1.08;;
46757;SDS011;32509;47.750;-3.396;2023-02-23T13:45:46;1.92;;;1.40;;
46757;SDS011;32509;47.750;-3.396;2023-02-23T13:51:36;1.15;;;1.08;;
46757;SDS011;32509;47.750;-3.396;2023-02-23T13:54:02;1.00;;;0.90;;
46757;SDS011;32509;47.750;-3.396;2023-02-23T13:56:31;3.33;;;1.23;;
46757;SDS011;32509;47.750;-3.396;2023-02-23T13:59:14;2.17;;;1.08;;
46757;SDS011;32509;47.750;-3.396;2023-02-23T14:02:14;1.40;;;0.90;;
46757;SDS011;32509;47.750;-3.396;2023-02-23T14:04:47;1.10;;;0.90;;
46757;SDS011;32509;47.750;-3.396;2023-02-23T14:07:24;3.05;;;1.33;;
46757;SDS011;32509;47.750;-3.396;2023-02-23T14:10:00;1.50;;;1.30;;
46757;SDS011;32509;47.750;-3.396;2023-02-23T14:12:35;3.75;;;1.50;;
46757;SDS011;32509;47.750;-3.396;2023-02-23T14:17:59;1.80;;;1.10;;
46757;SDS011;32509;47.750;-3.396;2023-02-23T14:28:22;1.80;;;1.08;;
46757;SDS011;32509;47.750;-3.396;2023-02-23T14:38:45;4.68;;;1.30;;
46757;SDS011;32509;47.750;-3.396;2023-02-23T14:41:11;3.63;;;1.35;;
46757;SDS011;32509;47.750;-3.396;2023-02-23T14:46:02;0.75;;;0.70;;
46757;SDS011;32509;47.750;-3.396;2023-02-23T14:48:32;3.42;;;0.85;;
46757;SDS011;32509;47.750;-3.396;2023-02-23T14:51:11;1.95;;;1.15;;
46757;SDS011;32509;47.750;-3.396;2023-02-23T14:54:00;2.05;;;1.10;;
46757;SDS011;32509;47.750;-3.396;2023-02-23T14:56:26;4.90;;;1.25;;
46757;SDS011;32509;47.750;-3.396;2023-02-23T14:58:53;4.65;;;1.35;;
46757;SDS011;32509;47.750;-3.396;2023-02-23T15:01:30;1.95;;;1.13;;
46757;SDS011;32509;47.750;-3.396;2023-02-23T15:04:04;8.00;;;1.73;;
46757;SDS011;32509;47.750;-3.396;2023-02-23T15:06:35;37.50;;;5.57;;
46757;SDS011;32509;47.750;-3.396;2023-02-23T15:09:02;2.17;;;1.08;;
46757;SDS011;32509;47.750;-3.396;2023-02-23T15:11:28;2.85;;;1.75;;
46757;SDS011;32509;47.750;-3.396;2023-02-23T15:13:55;1.20;;;1.10;;
46757;SDS011;32509;47.750;-3.396;2023-02-23T15:16:26;3.10;;;1.65;;
46757;SDS011;32509;47.750;-3.396;2023-02-23T15:18:56;2.38;;;1.48;;
46757;SDS011;32509;47.750;-3.396;2023-02-23T15:21:24;3.22;;;1.70;;
46757;SDS011;32509;47.750;-3.396;2023-02-23T15:23:52;2.50;;;1.52;;
46757;SDS011;32509;47.750;-3.396;2023-02-23T15:26:35;2.80;;;1.00;;
46757;SDS011;32509;47.750;-3.396;2023-02-23T15:31:37;16.30;;;2.08;;
46757;SDS011;32509;47.750;-3.396;2023-02-23T15:34:14;19.23;;;2.47;;
46757;SDS011;32509;47.750;-3.396;2023-02-23T15:36:49;5.93;;;1.65;;
46757;SDS011;32509;47.750;-3.396;2023-02-23T15:39:27;4.03;;;1.20;;
46757;SDS011;32509;47.750;-3.396;2023-02-23T15:41:59;2.58;;;1.50;;
46757;SDS011;32509;47.750;-3.396;2023-02-23T15:44:26;2.72;;;1.50;;
46757;SDS011;32509;47.750;-3.396;2023-02-23T15:47:00;1.60;;;1.45;;
46757;SDS011;32509;47.750;-3.396;2023-02-23T15:49:36;3.30;;;2.22;;
46757;SDS011;32509;47.750;-3.396;2023-02-23T15:52:06;2.15;;;1.58;;
46757;SDS011;32509;47.750;-3.396;2023-02-23T15:54:39;4.60;;;2.63;;
46757;SDS011;32509;47.750;-3.396;2023-02-23T15:57:32;2.10;;;1.90;;
46757;SDS011;32509;47.750;-3.396;2023-02-23T16:00:13;1.85;;;1.75;;
46757;SDS011;32509;47.750;-3.396;2023-02-23T16:02:43;3.03;;;1.67;;
46757;SDS011;32509;47.750;-3.396;2023-02-23T16:05:19;2.88;;;1.85;;
46757;SDS011;32509;47.750;-3.396;2023-02-23T16:07:46;2.50;;;1.85;;
46757;SDS011;32509;47.750;-3.396;2023-02-23T16:12:52;1.70;;;1.60;;
46757;SDS011;32509;47.750;-3.396;2023-02-23T16:15:23;3.85;;;2.03;;
46757;SDS011;32509;47.750;-3.396;2023-02-23T16:18:00;2.67;;;1.92;;
46757;SDS011;32509;47.750;-3.396;2023-02-23T16:20:30;3.80;;;2.35;;
46757;SDS011;32509;47.750;-3.396;2023-02-23T16:23:02;1.92;;;1.60;;
46757;SDS011;32509;47.750;-3.396;2023-02-23T16:25:29;3.22;;;2.92;;
46757;SDS011;32509;47.750;-3.396;2023-02-23T16:28:11;2.67;;;1.88;;
46757;SDS011;32509;47.750;-3.396;2023-02-23T16:30:43;4.50;;;2.22;;
46757;SDS011;32509;47.750;-3.396;2023-02-23T16:33:25;2.53;;;2.33;;
46757;SDS011;32509;47.750;-3.396;2023-02-23T16:36:14;4.35;;;1.60;;
46757;SDS011;32509;47.750;-3.396;2023-02-23T16:38:55;2.50;;;1.42;;
46757;SDS011;32509;47.750;-3.396;2023-02-23T16:41:22;1.80;;;1.60;;
46757;SDS011;32509;47.750;-3.396;2023-02-23T16:43:50;2.70;;;2.08;;
46757;SDS011;32509;47.750;-3.396;2023-02-23T16:46:18;4.57;;;2.05;;
46757;SDS011;32509;47.750;-3.396;2023-02-23T16:48:47;16.38;;;3.63;;
46757;SDS011;32509;47.750;-3.396;2023-02-23T16:51:13;3.80;;;2.88;;
46757;SDS011;32509;47.750;-3.396;2023-02-23T16:53:40;11.05;;;2.58;;
46757;SDS011;32509;47.750;-3.396;2023-02-23T16:56:07;4.53;;;2.50;;
46757;SDS011;32509;47.750;-3.396;2023-02-23T16:58:38;5.07;;;2.80;;
46757;SDS011;32509;47.750;-3.396;2023-02-23T17:01:06;5.68;;;2.85;;
46757;SDS011;32509;47.750;-3.396;2023-02-23T17:03:37;6.18;;;3.78;;
46757;SDS011;32509;47.750;-3.396;2023-02-23T17:06:03;20.73;;;5.68;;
46757;SDS011;32509;47.750;-3.396;2023-02-23T17:08:29;16.77;;;4.57;;
46757;SDS011;32509;47.750;-3.396;2023-02-23T17:10:55;6.57;;;3.50;;
46757;SDS011;32509;47.750;-3.396;2023-02-23T17:13:22;6.43;;;3.92;;
46757;SDS011;32509;47.750;-3.396;2023-02-23T17:15:50;9.15;;;3.80;;
46757;SDS011;32509;47.750;-3.396;2023-02-23T17:18:21;5.50;;;4.55;;
46757;SDS011;32509;47.750;-3.396;2023-02-23T17:20:49;6.32;;;4.93;;